Time;durP1;ratioP1;P1;durP2;ratioP2;P2;SDS_P1;SDS_P2;PMS_P1;PMS_P2;Temp;Humidity;BMP_temperature;BMP_pressure;BME280_temperature;BME280_humidity;BME280_pressure;Samples;Min_cycle;Max_cycle;Signal;HPM_P1;HPM_P2
2022/04/18 00:00:55;;;;;;;3.47;2.50;;;;;2.50;97088.00;;;;4970485;28;20483;-68
2022/04/18 00:03:24;;;;;;;1.80;1.70;;;;;2.40;97089.00;;;;4963905;28;20475;-68
2022/04/18 00:05:53;;;;;;;4.90;1.90;;;;;2.00;97082.00;;;;4968661;28;20451;-68
2022/04/18 00:08:22;;;;;;;2.27;1.80;;;;;2.20;97082.00;;;;4966227;28;20470;-68
2022/04/18 00:10:51;;;;;;;1.70;1.60;;;;;2.20;97084.00;;;;4965829;28;20449;-68
2022/04/18 00:13:19;;;;;;;3.37;1.93;;;;;1.90;97072.00;;;;4969395;28;20472;-68
2022/04/18 00:15:50;;;;;;;2.27;2.07;;;;;1.90;97074.00;;;;4968162;28;20478;-68
2022/04/18 00:18:19;;;;;;;1.93;1.83;;;;;2.10;97075.00;;;;4967792;28;20454;-68
2022/04/18 00:20:48;;;;;;;5.43;2.50;;;;;2.10;97068.00;;;;4968294;28;20450;-68
2022/04/18 00:23:17;;;;;;;3.33;2.33;;;;;1.50;97065.00;;;;4966753;28;20565;-68
2022/04/18 00:25:46;;;;;;;10.13;2.20;;;;;1.80;97069.00;;;;4960043;28;20435;-68
2022/04/18 00:28:15;;;;;;;4.40;2.33;;;;;1.80;97068.00;;;;4966487;28;20446;-68
2022/04/18 00:30:44;;;;;;;3.20;2.17;;;;;1.70;97062.00;;;;4961164;28;20471;-68
2022/04/18 00:33:14;;;;;;;5.97;2.43;;;;;1.40;97064.00;;;;4953616;28;20488;-68
2022/04/18 00:35:43;;;;;;;3.67;2.73;;;;;1.30;97057.00;;;;4962268;28;20533;-68
2022/04/18 00:38:12;;;;;;;2.47;2.27;;;;;1.10;97055.00;;;;4961941;28;20456;-67
2022/04/18 00:40:41;;;;;;;2.57;1.90;;;;;1.10;97046.00;;;;4961723;28;20471;-67
2022/04/18 00:43:10;;;;;;;4.27;2.13;;;;;1.40;97047.00;;;;4967211;28;20462;-68
2022/04/18 00:45:38;;;;;;;3.63;2.47;;;;;1.50;97053.00;;;;4961006;28;20454;-68
2022/04/18 00:48:07;;;;;;;4.43;3.10;;;;;1.20;97051.00;;;;4966121;28;20570;-68
2022/04/18 00:50:38;;;;;;;7.03;2.20;;;;;1.10;97047.00;;;;4968070;28;20558;-68
2022/04/18 00:53:07;;;;;;;2.47;2.27;;;;;1.10;97053.00;;;;4967738;28;20465;-68
2022/04/18 00:55:35;;;;;;;2.43;2.00;;;;;1.10;97048.00;;;;4966874;28;20478;-68
2022/04/18 00:58:05;;;;;;;4.70;2.40;;;;;1.10;97041.00;;;;4966806;28;20458;-68
2022/04/18 01:00:34;;;;;;;3.07;2.60;;;;;1.10;97040.00;;;;4967834;28;20474;-68
2022/04/18 01:03:03;;;;;;;3.20;3.00;;;;;0.80;97038.00;;;;4963509;28;20530;-68
2022/04/18 01:05:32;;;;;;;2.93;2.27;;;;;0.40;97037.00;;;;4968326;28;20442;-68
2022/04/18 01:08:02;;;;;;;5.40;1.97;;;;;0.20;97032.00;;;;4956497;28;20470;-68
2022/04/18 01:10:31;;;;;;;3.03;2.63;;;;;0.40;97039.00;;;;4965861;28;20447;-68
2022/04/18 01:13:00;;;;;;;2.87;2.20;;;;;0.80;97029.00;;;;4965237;28;20462;-68
2022/04/18 01:15:29;;;;;;;7.20;2.43;;;;;1.00;97037.00;;;;4962891;28;20478;-68
2022/04/18 01:17:57;;;;;;;3.90;2.97;;;;;0.90;97044.00;;;;4966164;28;20518;-68
2022/04/18 01:20:28;;;;;;;3.93;2.93;;;;;0.60;97023.00;;;;4969377;28;20467;-68
2022/04/18 01:22:59;;;;;;;3.30;2.80;;;;;0.60;97019.00;;;;4967981;28;20469;-68
2022/04/18 01:31:01;;;;;;;2.10;1.67;;;;;0.20;97014.00;;;;4971721;28;20450;-68
2022/04/18 01:33:30;;;;;;;5.53;2.60;;;;;0.20;97012.00;;;;4971158;28;20466;-68
2022/04/18 01:35:59;;;;;;;2.83;2.20;;;;;-0.10;97009.00;;;;4961247;28;20537;-68
2022/04/18 01:38:29;;;;;;;4.53;2.43;;;;;0.10;97005.00;;;;4972418;28;20505;-68
2022/04/18 01:40:58;;;;;;;2.50;2.30;;;;;0.00;96992.00;;;;4971372;28;20439;-67
2022/04/18 01:43:27;;;;;;;3.33;2.50;;;;;-0.30;96997.00;;;;4962344;28;20478;-68
2022/04/18 01:45:55;;;;;;;4.10;2.17;;;;;0.00;96979.00;;;;4972808;28;20439;-68
2022/04/18 01:48:24;;;;;;;2.83;2.30;;;;;0.30;96987.00;;;;4970580;28;20497;-68
2022/04/18 01:50:53;;;;;;;3.53;2.27;;;;;0.50;96981.00;;;;4971166;28;20462;-68
2022/04/18 01:53:23;;;;;;;3.13;2.80;;;;;0.10;96981.00;;;;4972653;28;20463;-68
2022/04/18 01:55:53;;;;;;;2.37;2.10;;;;;0.00;96983.00;;;;4971045;28;20521;-68
2022/04/18 01:58:21;;;;;;;4.80;2.57;;;;;0.10;96975.00;;;;4970056;28;20447;-68
2022/04/18 02:00:50;;;;;;;3.13;2.23;;;;;0.10;96980.00;;;;4972576;28;20447;-68
2022/04/18 02:03:21;;;;;;;2.30;2.10;;;;;0.00;96967.00;;;;4967339;28;20460;-68
2022/04/18 02:05:52;;;;;;;2.50;2.30;;;;;-0.30;96969.00;;;;4956991;28;20447;-68
2022/04/18 02:08:22;;;;;;;3.17;2.77;;;;;-0.10;96972.00;;;;4971103;28;20443;-68
2022/04/18 02:10:52;;;;;;;2.30;2.20;;;;;-0.10;96965.00;;;;4970908;28;20449;-68
2022/04/18 02:13:21;;;;;;;2.80;2.60;;;;;-0.30;96964.00;;;;4970612;28;20506;-68
2022/04/18 02:15:50;;;;;;;1.83;1.73;;;;;-0.30;96946.00;;;;4972271;28;20527;-68
2022/04/18 02:18:18;;;;;;;1.87;1.77;;;;;-0.50;96947.00;;;;4970215;28;20542;-68
2022/04/18 02:20:47;;;;;;;2.40;2.20;;;;;-0.60;96949.00;;;;4971616;28;20500;-68
2022/04/18 02:23:16;;;;;;;3.53;2.10;;;;;-0.30;96942.00;;;;4961437;28;20466;-68
2022/04/18 02:25:45;;;;;;;4.30;3.13;;;;;-0.20;96941.00;;;;4969699;28;20443;-68
2022/04/18 02:28:15;;;;;;;6.03;2.27;;;;;-0.20;96947.00;;;;4971082;28;20504;-68
2022/04/18 02:30:44;;;;;;;2.20;2.00;;;;;-0.20;96927.00;;;;4971753;28;20443;-68
2022/04/18 02:33:13;;;;;;;6.33;2.60;;;;;-0.30;96942.00;;;;4971040;28;20478;-68
2022/04/18 02:35:42;;;;;;;3.00;2.80;;;;;-0.30;96939.00;;;;4971598;28;20451;-67
2022/04/18 02:38:11;;;;;;;4.57;3.13;;;;;-0.70;96929.00;;;;4968987;28;20489;-68
2022/04/18 02:40:40;;;;;;;4.57;2.67;;;;;-0.50;96943.00;;;;4966819;28;20467;-68
2022/04/18 02:43:09;;;;;;;3.00;2.70;;;;;-0.50;96933.00;;;;4968264;28;20479;-68
2022/04/18 02:45:39;;;;;;;4.07;2.67;;;;;-0.60;96929.00;;;;4964635;28;20440;-68
2022/04/18 02:48:08;;;;;;;3.00;2.63;;;;;-0.40;96926.00;;;;4968130;28;20450;-68
2022/04/18 02:50:37;;;;;;;7.80;2.67;;;;;-0.20;96928.00;;;;4966894;28;20458;-68
2022/04/18 02:53:07;;;;;;;3.83;2.67;;;;;-0.10;96939.00;;;;4969827;28;20470;-68
2022/04/18 02:55:36;;;;;;;4.30;3.33;;;;;-0.30;96924.00;;;;4970077;28;20447;-68
2022/04/18 02:58:05;;;;;;;3.63;2.47;;;;;-0.30;96925.00;;;;4967923;28;20478;-68
2022/04/18 03:00:34;;;;;;;2.80;2.60;;;;;-0.70;96920.00;;;;4971178;28;20447;-68
2022/04/18 03:03:04;;;;;;;2.17;1.97;;;;;-0.50;96918.00;;;;4961407;28;20502;-68
2022/04/18 03:05:33;;;;;;;2.77;2.10;;;;;-0.30;96923.00;;;;4971452;28;20537;-68
2022/04/18 03:08:02;;;;;;;4.73;2.97;;;;;0.00;96927.00;;;;4968002;28;20435;-68
2022/04/18 03:13:18;;;;;;;3.63;2.63;;;;;-0.30;96920.00;;;;4961862;28;20466;-68
2022/04/18 03:15:47;;;;;;;3.50;3.20;;;;;-0.10;96921.00;;;;4970241;28;20445;-68
2022/04/18 03:18:17;;;;;;;3.73;3.07;;;;;-0.60;96928.00;;;;4967984;28;20478;-68
2022/04/18 03:20:46;;;;;;;3.20;2.87;;;;;-0.60;96913.00;;;;4966838;28;20458;-68
2022/04/18 03:23:14;;;;;;;3.67;3.07;;;;;-0.40;96912.00;;;;4967967;28;20466;-68
2022/04/18 03:25:43;;;;;;;3.43;3.03;;;;;-0.50;96905.00;;;;4967984;28;20435;-68
2022/04/18 03:28:12;;;;;;;3.10;2.80;;;;;-0.20;96904.00;;;;4963168;28;20435;-68
2022/04/18 03:30:41;;;;;;;3.27;2.73;;;;;-0.40;96905.00;;;;4968503;28;20438;-68
2022/04/18 03:33:10;;;;;;;2.40;2.00;;;;;-1.10;96900.00;;;;4969685;28;20479;-68
2022/04/18 03:39:50;;;;;;;3.33;3.03;;;;;-1.00;96893.00;;;;4967080;28;20445;-68
2022/04/18 03:41:17;;;;;;;3.90;3.50;;;;;-0.80;96894.00;;;;4961819;28;20533;-68
2022/04/18 03:43:46;;;;;;;7.70;3.37;;;;;-0.60;96886.00;;;;4968153;28;20498;-68
2022/04/18 03:46:14;;;;;;;3.27;2.70;;;;;-0.50;96898.00;;;;4954173;28;20451;-68
2022/04/18 03:48:43;;;;;;;4.43;3.10;;;;;-0.90;96891.00;;;;4968901;28;20435;-68
2022/04/18 03:51:13;;;;;;;3.30;2.63;;;;;-1.10;96889.00;;;;4968316;28;20455;-68
2022/04/18 03:53:42;;;;;;;4.87;2.77;;;;;-0.80;96891.00;;;;4970442;28;20466;-68
2022/04/18 03:56:11;;;;;;;3.40;3.13;;;;;-0.80;96897.00;;;;4968224;28;20442;-68
2022/04/18 03:58:40;;;;;;;3.03;2.73;;;;;-0.90;96891.00;;;;4968022;28;20489;-67
2022/04/18 04:01:09;;;;;;;3.07;2.70;;;;;-1.10;96889.00;;;;4964927;28;20451;-68
2022/04/18 04:03:38;;;;;;;2.70;2.43;;;;;-0.90;96892.00;;;;4959364;28;20470;-68
2022/04/18 04:06:07;;;;;;;3.20;2.67;;;;;-0.80;96891.00;;;;4970681;28;20545;-68
2022/04/18 04:08:37;;;;;;;5.00;3.10;;;;;-0.90;96889.00;;;;4970406;28;20433;-68
2022/04/18 04:11:05;;;;;;;4.73;2.47;;;;;-1.30;96879.00;;;;4968866;28;20458;-68
2022/04/18 04:13:34;;;;;;;2.60;2.33;;;;;-1.50;96877.00;;;;4970964;28;20470;-68
2022/04/18 04:16:03;;;;;;;2.60;2.40;;;;;-1.40;96887.00;;;;4970303;28;20438;-68
2022/04/18 04:18:32;;;;;;;7.37;2.87;;;;;-1.30;96882.00;;;;4970907;28;20483;-68
2022/04/18 04:21:01;;;;;;;2.80;1.93;;;;;-1.50;96875.00;;;;4969970;28;20478;-68
2022/04/18 04:23:29;;;;;;;3.87;3.00;;;;;-1.20;96883.00;;;;4971104;28;20465;-68
2022/04/18 04:26:11;;;;;;;2.93;2.70;;;;;-0.90;96879.00;;;;4958452;28;20474;-68
2022/04/18 04:28:40;;;;;;;3.23;2.93;;;;;-0.90;96884.00;;;;4953534;28;20446;-68
2022/04/18 04:31:11;;;;;;;5.57;2.87;;;;;-0.80;96881.00;;;;4971755;28;20442;-68
2022/04/18 04:33:40;;;;;;;6.60;3.50;;;;;-0.80;96883.00;;;;4967258;28;20458;-68
2022/04/18 04:36:08;;;;;;;3.30;2.97;;;;;-1.20;96872.00;;;;4970686;28;20426;-67
2022/04/18 04:38:37;;;;;;;3.57;2.87;;;;;-1.00;96878.00;;;;4958278;28;20506;-68
2022/04/18 04:41:06;;;;;;;2.53;2.43;;;;;-1.20;96882.00;;;;4966131;28;20443;-68
2022/04/18 04:43:36;;;;;;;3.17;2.87;;;;;-1.00;96885.00;;;;4970400;28;20465;-68
2022/04/18 04:46:05;;;;;;;3.73;3.20;;;;;-1.00;96882.00;;;;4971125;28;20443;-68
2022/04/18 04:48:34;;;;;;;4.47;3.63;;;;;-0.90;96878.00;;;;4966892;28;20442;-68
2022/04/18 04:51:02;;;;;;;2.83;2.53;;;;;-1.00;96882.00;;;;4965679;28;20451;-68
2022/04/18 04:53:31;;;;;;;3.30;2.57;;;;;-0.70;96873.00;;;;4963002;28;20464;-68
2022/04/18 04:56:00;;;;;;;2.57;2.23;;;;;-1.00;96871.00;;;;4958837;28;20439;-68
2022/04/18 04:58:29;;;;;;;3.73;2.23;;;;;-0.90;96871.00;;;;4968938;28;20490;-69
2022/04/18 05:00:59;;;;;;;2.80;2.53;;;;;-0.80;96870.00;;;;4970401;28;20520;-68
2022/04/18 05:03:28;;;;;;;2.23;2.13;;;;;-0.70;96867.00;;;;4968014;28;20509;-68
2022/04/18 05:05:57;;;;;;;2.97;2.67;;;;;-0.60;96871.00;;;;4969920;28;20458;-68
2022/04/18 05:08:26;;;;;;;3.07;2.67;;;;;-0.20;96869.00;;;;4967960;28;20439;-68
2022/04/18 05:10:59;;;;;;;3.20;2.87;;;;;-0.10;96870.00;;;;4970846;28;20451;-68
2022/04/18 05:13:28;;;;;;;3.17;2.90;;;;;0.10;96881.00;;;;4968878;28;20454;-68
2022/04/18 05:15:57;;;;;;;4.87;2.73;;;;;0.00;96865.00;;;;4951839;28;20435;-68
2022/04/18 05:18:28;;;;;;;3.73;3.43;;;;;0.10;96868.00;;;;4960223;28;20474;-68
2022/04/18 05:20:57;;;;;;;5.90;3.07;;;;;0.40;96871.00;;;;4970825;28;20537;-68
2022/04/18 05:23:25;;;;;;;6.07;3.63;;;;;0.30;96857.00;;;;4966610;28;20558;-68
2022/04/18 05:25:54;;;;;;;3.17;2.93;;;;;0.30;96857.00;;;;4969896;28;20538;-68
2022/04/18 05:28:23;;;;;;;3.07;2.37;;;;;0.40;96863.00;;;;4963351;28;20448;-68
2022/04/18 05:30:52;;;;;;;3.13;2.83;;;;;0.10;96859.00;;;;4951734;28;20498;-68
2022/04/18 05:33:21;;;;;;;6.07;4.33;;;;;0.30;96851.00;;;;4967875;28;20469;-68
2022/04/18 05:35:51;;;;;;;31.50;13.50;;;;;0.50;96867.00;;;;4970182;28;20477;-68
2022/04/18 05:38:20;;;;;;;39.23;16.93;;;;;0.60;96861.00;;;;4968813;28;20474;-68
2022/04/18 05:40:49;;;;;;;32.40;14.03;;;;;0.80;96861.00;;;;4967431;28;20438;-68
2022/04/18 05:43:18;;;;;;;15.13;8.23;;;;;0.80;96855.00;;;;4970811;28;20836;-68
2022/04/18 05:45:50;;;;;;;9.17;5.57;;;;;1.10;96870.00;;;;4971581;28;20447;-68
2022/04/18 05:48:19;;;;;;;3.53;3.20;;;;;1.30;96862.00;;;;4969247;28;20550;-68
2022/04/18 05:50:48;;;;;;;3.60;3.20;;;;;1.20;96867.00;;;;4967939;28;20442;-68
2022/04/18 05:53:18;;;;;;;3.07;2.37;;;;;1.10;96854.00;;;;4959662;28;20462;-68
2022/04/18 05:55:47;;;;;;;2.00;1.80;;;;;1.10;96855.00;;;;4970597;28;20542;-68
2022/04/18 05:58:15;;;;;;;3.47;2.80;;;;;1.50;96859.00;;;;4971429;28;20482;-68
2022/04/18 06:00:44;;;;;;;4.47;2.87;;;;;1.90;96867.00;;;;4969941;28;20454;-68
2022/04/18 06:03:13;;;;;;;3.60;2.37;;;;;2.00;96853.00;;;;4967410;28;20450;-68
2022/04/18 06:05:42;;;;;;;5.00;2.43;;;;;2.10;96859.00;;;;4968312;28;20431;-68
2022/04/18 06:08:11;;;;;;;4.10;2.90;;;;;2.30;96852.00;;;;4965891;28;20446;-68
2022/04/18 06:10:41;;;;;;;2.63;2.40;;;;;2.60;96856.00;;;;4969645;28;20443;-68
2022/04/18 06:13:10;;;;;;;4.20;3.07;;;;;2.60;96850.00;;;;4967103;28;20549;-69
2022/04/18 06:15:39;;;;;;;3.67;3.10;;;;;2.90;96859.00;;;;4973300;28;20481;-68
2022/04/18 06:18:08;;;;;;;5.33;2.97;;;;;3.00;96859.00;;;;4971878;28;20450;-68
2022/04/18 06:20:38;;;;;;;2.60;2.33;;;;;3.20;96852.00;;;;4972085;28;20438;-69
2022/04/18 06:23:07;;;;;;;3.87;2.97;;;;;3.30;96854.00;;;;4972189;28;20478;-68
2022/04/18 06:25:36;;;;;;;2.90;2.70;;;;;3.50;96858.00;;;;4968929;28;20453;-68
2022/04/18 06:28:07;;;;;;;9.67;2.83;;;;;3.70;96854.00;;;;4970859;28;20847;-68
2022/04/18 06:30:35;;;;;;;3.07;2.53;;;;;3.80;96856.00;;;;4973256;28;20529;-68
2022/04/18 06:33:04;;;;;;;4.70;3.00;;;;;4.20;96854.00;;;;4970628;28;20479;-68
2022/04/18 06:35:33;;;;;;;4.87;2.77;;;;;4.60;96858.00;;;;4969663;28;20447;-69
2022/04/18 06:38:02;;;;;;;4.17;3.37;;;;;4.80;96858.00;;;;4967917;28;20446;-68
2022/04/18 06:40:31;;;;;;;3.70;3.30;;;;;4.80;96860.00;;;;4974147;28;20493;-69
2022/04/18 06:42:59;;;;;;;4.07;3.13;;;;;5.40;96856.00;;;;4969395;28;20469;-69
2022/04/18 06:45:31;;;;;;;4.13;3.30;;;;;5.80;96865.00;;;;4972885;28;20445;-69
2022/04/18 06:48:00;;;;;;;4.60;3.70;;;;;6.20;96856.00;;;;4969397;28;20514;-69
2022/04/18 06:50:28;;;;;;;4.97;3.43;;;;;6.70;96857.00;;;;4970772;28;20442;-69
2022/04/18 06:52:57;;;;;;;3.93;3.57;;;;;7.10;96860.00;;;;4961573;28;20462;-69
2022/04/18 06:55:26;;;;;;;10.23;3.30;;;;;7.30;96855.00;;;;4972357;28;20199;-69
2022/04/18 06:57:54;;;;;;;7.43;3.77;;;;;7.50;96859.00;;;;4970412;28;20203;-69
2022/04/18 07:00:23;;;;;;;4.87;3.10;;;;;7.60;96852.00;;;;4968945;28;20247;-69
2022/04/18 07:02:53;;;;;;;4.30;3.13;;;;;7.60;96862.00;;;;4957910;28;20219;-69
2022/04/18 07:05:22;;;;;;;5.67;2.93;;;;;7.70;96871.00;;;;4971723;28;20254;-69
2022/04/18 07:07:51;;;;;;;3.40;2.73;;;;;7.90;96858.00;;;;4961270;28;20254;-69
2022/04/18 07:10:20;;;;;;;3.43;3.13;;;;;7.80;96868.00;;;;4964531;28;20578;-69
2022/04/18 07:12:49;;;;;;;5.23;3.17;;;;;7.80;96851.00;;;;4970907;28;20219;-69
2022/04/18 07:15:17;;;;;;;5.43;2.60;;;;;8.20;96849.00;;;;4970272;28;20196;-69
2022/04/18 07:17:46;;;;;;;7.63;3.00;;;;;8.50;96860.00;;;;4967295;28;20278;-69
2022/04/18 07:20:16;;;;;;;3.73;2.60;;;;;8.30;96874.00;;;;4971780;28;20231;-69
2022/04/18 07:22:45;;;;;;;4.60;2.80;;;;;8.30;96869.00;;;;4965500;28;20310;-70
2022/04/18 07:25:14;;;;;;;2.60;2.10;;;;;8.40;96847.00;;;;4966669;28;20211;-69
2022/04/18 07:27:44;;;;;;;3.70;2.13;;;;;9.20;96863.00;;;;4971145;28;20208;-69
2022/04/18 07:30:13;;;;;;;2.13;1.87;;;;;9.10;96850.00;;;;4972016;28;20197;-68
2022/04/18 07:32:42;;;;;;;6.50;2.13;;;;;9.60;96874.00;;;;4972371;28;20225;-68
2022/04/18 07:35:12;;;;;;;2.27;1.53;;;;;9.70;96873.00;;;;4962525;28;20249;-68
2022/04/18 07:38:48;;;;;;;3.50;2.13;;;;;9.40;96870.00;;;;4971149;28;20195;-68
2022/04/18 07:40:32;;;;;;;2.37;1.90;;;;;10.30;96875.00;;;;4971552;28;20239;-68
2022/04/18 07:43:00;;;;;;;3.80;1.60;;;;;10.30;96870.00;;;;4961188;28;20230;-68
2022/04/18 07:45:29;;;;;;;2.07;1.60;;;;;10.00;96864.00;;;;4971320;28;20209;-67
2022/04/18 07:47:58;;;;;;;3.10;1.57;;;;;10.50;96871.00;;;;4968157;28;20228;-68
2022/04/18 07:51:31;;;;;;;2.20;1.63;;;;;10.60;96873.00;;;;4970483;28;20211;-67
2022/04/18 07:53:17;;;;;;;3.53;1.80;;;;;10.00;96867.00;;;;4970846;28;20231;-68
2022/04/18 07:55:46;;;;;;;4.10;2.20;;;;;9.90;96859.00;;;;4971376;28;20211;-68
2022/04/18 07:58:14;;;;;;;2.60;2.00;;;;;9.80;96868.00;;;;4969783;28;20227;-65
2022/04/18 08:00:43;;;;;;;3.37;2.00;;;;;10.10;96865.00;;;;4968664;28;20227;-68
2022/04/18 08:03:12;;;;;;;1.77;1.60;;;;;10.70;96854.00;;;;4969277;28;20227;-68
2022/04/18 08:05:41;;;;;;;2.87;2.17;;;;;10.70;96859.00;;;;4967905;28;20230;-68
2022/04/18 08:08:10;;;;;;;1.70;1.33;;;;;10.10;96849.00;;;;4965611;28;20204;-69
2022/04/18 08:10:40;;;;;;;1.73;1.40;;;;;10.20;96846.00;;;;4967235;28;20203;-66
2022/04/18 08:13:09;;;;;;;1.67;1.57;;;;;10.10;96848.00;;;;4963876;28;20342;-68
2022/04/18 08:15:38;;;;;;;5.83;1.50;;;;;10.50;96843.00;;;;4968854;28;20195;-68
2022/04/18 08:18:06;;;;;;;2.33;1.67;;;;;10.60;96842.00;;;;4965135;28;20204;-68
2022/04/18 08:20:35;;;;;;;1.53;1.37;;;;;9.60;96825.00;;;;4969120;28;20223;-68
2022/04/18 08:23:04;;;;;;;3.97;1.73;;;;;11.00;96831.00;;;;4967199;28;20226;-68
2022/04/18 08:25:33;;;;;;;1.97;1.60;;;;;11.20;96835.00;;;;4962814;28;20200;-68
2022/04/18 08:28:03;;;;;;;2.13;1.63;;;;;11.40;96828.00;;;;4966311;28;20191;-68
2022/04/18 08:30:32;;;;;;;3.63;2.20;;;;;11.80;96827.00;;;;4969642;28;20203;-68
2022/04/18 08:33:01;;;;;;;1.60;1.20;;;;;11.80;96819.00;;;;4966036;28;20223;-68
2022/04/18 08:35:32;;;;;;;2.17;1.37;;;;;12.40;96829.00;;;;4966980;28;20245;-69
2022/04/18 08:38:01;;;;;;;3.93;1.67;;;;;12.40;96828.00;;;;4967520;28;20200;-67
2022/04/18 08:40:30;;;;;;;3.03;1.67;;;;;11.90;96828.00;;;;4965764;28;20219;-68
2022/04/18 08:42:59;;;;;;;2.80;1.40;;;;;11.80;96841.00;;;;4967615;28;20267;-68
2022/04/18 08:45:29;;;;;;;2.20;1.80;;;;;11.70;96838.00;;;;4963666;28;20282;-67
2022/04/18 08:53:33;;;;;;;1.53;1.43;;;;;10.50;96820.00;;;;4963516;28;20566;-68
2022/04/18 08:56:02;;;;;;;1.80;1.43;;;;;11.00;96829.00;;;;4963016;28;20203;-68
2022/04/18 08:58:31;;;;;;;1.20;1.10;;;;;11.10;96831.00;;;;4960234;28;20207;-67
2022/04/18 09:01:02;;;;;;;3.87;1.60;;;;;10.90;96827.00;;;;4961439;28;20244;-68
2022/04/18 09:03:34;;;;;;;1.23;1.03;;;;;11.20;96828.00;;;;4960499;28;20803;-69
2022/04/18 09:06:08;;;;;;;1.80;1.30;;;;;11.00;96821.00;;;;4962044;28;20203;-68
2022/04/18 09:08:44;;;;;;;1.10;1.00;;;;;10.70;96823.00;;;;4964811;28;20210;-68
2022/04/18 09:11:25;;;;;;;3.20;1.67;;;;;10.50;96807.00;;;;4962539;28;20191;-68
2022/04/18 09:13:58;;;;;;;3.47;1.40;;;;;10.60;96816.00;;;;4958938;28;20223;-68
2022/04/18 09:16:32;;;;;;;1.93;1.43;;;;;10.50;96809.00;;;;4966030;28;20207;-69
2022/04/18 09:19:09;;;;;;;3.10;1.67;;;;;11.10;96819.00;;;;4966375;28;20207;-69
2022/04/18 09:21:57;;;;;;;2.10;1.20;;;;;11.40;96819.00;;;;4969399;28;20215;-69
2022/04/18 09:24:32;;;;;;;2.87;1.67;;;;;11.30;96821.00;;;;4965146;28;20211;-69
2022/04/18 09:27:07;;;;;;;3.97;1.47;;;;;11.10;96812.00;;;;4963702;28;20206;-69
2022/04/18 09:29:38;;;;;;;2.50;1.83;;;;;11.20;96822.00;;;;4963390;28;20195;-69
2022/04/18 09:32:13;;;;;;;1.20;1.10;;;;;10.00;96811.00;;;;4962890;28;20210;-69
2022/04/18 09:34:42;;;;;;;1.33;1.23;;;;;10.60;96815.00;;;;4964611;28;20205;-69
2022/04/18 09:37:12;;;;;;;1.77;1.43;;;;;10.60;96810.00;;;;4961962;28;20211;-69
2022/04/18 09:39:43;;;;;;;1.90;1.40;;;;;9.90;96810.00;;;;4962925;28;20271;-69
2022/04/18 09:42:14;;;;;;;4.57;1.67;;;;;10.30;96817.00;;;;4964580;28;20222;-69
2022/04/18 09:44:43;;;;;;;1.53;1.13;;;;;10.20;96813.00;;;;4961541;28;20215;-69
2022/04/18 09:47:17;;;;;;;3.07;1.77;;;;;10.30;96812.00;;;;4966170;28;20354;-69
2022/04/18 09:49:47;;;;;;;4.43;1.53;;;;;9.80;96808.00;;;;4965682;28;20615;-68
2022/04/18 09:52:18;;;;;;;2.50;1.80;;;;;10.10;96813.00;;;;4969673;28;20247;-68
2022/04/18 09:54:48;;;;;;;1.57;1.30;;;;;10.40;96805.00;;;;4971794;28;20212;-68
2022/04/18 09:57:23;;;;;;;1.77;1.50;;;;;10.30;96816.00;;;;4963817;28;20226;-69
2022/04/18 09:59:52;;;;;;;1.70;1.23;;;;;10.20;96814.00;;;;4964926;28;20199;-69
2022/04/18 10:02:24;;;;;;;1.83;1.40;;;;;10.10;96806.00;;;;4965226;28;20235;-68
2022/04/18 10:04:53;;;;;;;2.87;1.83;;;;;9.80;96796.00;;;;4965414;28;20200;-69
2022/04/18 10:07:22;;;;;;;1.93;1.30;;;;;10.30;96797.00;;;;4965199;28;20254;-68
2022/04/18 10:09:51;;;;;;;1.40;1.30;;;;;10.40;96799.00;;;;4967409;28;20207;-69
2022/04/18 10:12:20;;;;;;;1.47;1.03;;;;;9.60;96792.00;;;;4960665;28;20262;-69
2022/04/18 10:14:49;;;;;;;2.43;1.17;;;;;10.00;96790.00;;;;4966076;28;20204;-68
2022/04/18 10:17:19;;;;;;;2.83;1.50;;;;;9.50;96792.00;;;;4964544;28;20203;-68
2022/04/18 10:20:06;;;;;;;2.27;1.50;;;;;10.30;96787.00;;;;4967009;28;20283;-69
2022/04/18 10:22:52;;;;;;;3.27;1.63;;;;;10.60;96780.00;;;;4970495;28;20219;-69
2022/04/18 10:25:30;;;;;;;1.63;1.40;;;;;10.00;96768.00;;;;4969701;28;20231;-68
2022/04/18 10:28:09;;;;;;;3.47;1.97;;;;;10.50;96743.00;;;;4967893;28;20203;-69
2022/04/18 10:30:42;;;;;;;2.10;1.60;;;;;11.50;96742.00;;;;4964730;28;20210;-69
2022/04/18 10:33:13;;;;;;;1.73;1.23;;;;;12.00;96730.00;;;;4961339;28;20230;-68
2022/04/18 10:36:02;;;;;;;2.43;1.63;;;;;12.30;96740.00;;;;4962020;28;20211;-68
2022/04/18 10:38:33;;;;;;;1.53;1.40;;;;;12.40;96730.00;;;;4962873;28;20644;-69
2022/04/18 10:43:59;;;;;;;2.80;2.37;;;;;12.30;96715.00;;;;4963215;28;20223;-69
2022/04/18 10:46:28;;;;;;;1.60;1.43;;;;;13.20;96716.00;;;;4963249;28;20210;-68
2022/04/18 10:48:57;;;;;;;1.97;1.67;;;;;12.90;96721.00;;;;4960429;28;20211;-68
2022/04/18 10:51:34;;;;;;;1.87;1.73;;;;;11.90;96712.00;;;;4957518;28;20211;-68
2022/04/18 10:54:12;;;;;;;4.73;2.00;;;;;11.90;96723.00;;;;4959015;28;20310;-68
2022/04/18 10:56:54;;;;;;;3.97;2.00;;;;;12.80;96720.00;;;;4956430;28;20215;-68
2022/04/18 10:59:24;;;;;;;2.57;1.60;;;;;12.50;96716.00;;;;4956106;28;20255;-67
2022/04/18 11:01:54;;;;;;;1.70;1.37;;;;;11.70;96712.00;;;;4955314;28;20215;-68
2022/04/18 11:04:26;;;;;;;4.17;1.70;;;;;12.50;96705.00;;;;4961618;28;20247;-68
2022/04/18 11:07:02;;;;;;;1.57;1.27;;;;;12.00;96707.00;;;;4966642;28;20212;-68
2022/04/18 11:09:34;;;;;;;2.00;1.50;;;;;12.80;96696.00;;;;4964072;28;20253;-68
2022/04/18 11:12:06;;;;;;;2.63;1.30;;;;;13.60;96689.00;;;;4962415;28;20212;-68
2022/04/18 11:14:48;;;;;;;1.40;1.27;;;;;14.00;96691.00;;;;4960322;28;20203;-68
2022/04/18 11:17:37;;;;;;;2.20;1.60;;;;;14.20;96691.00;;;;4961760;28;20241;-68
2022/04/18 11:20:28;;;;;;;2.93;2.00;;;;;14.70;96690.00;;;;4962895;28;20211;-68
2022/04/18 11:23:26;;;;;;;1.40;1.30;;;13.10;53.80;14.90;96683.00;;;;4965657;28;20251;-69
2022/04/18 11:25:57;;;;;;;3.77;1.60;;;13.30;53.60;14.70;96684.00;;;;4963257;28;20203;-69
2022/04/18 11:28:34;;;;;;;1.40;1.13;;;13.60;53.10;13.70;96682.00;;;;4964089;28;20200;-68
2022/04/18 11:31:09;;;;;;;2.00;1.40;;;13.50;52.50;14.60;96681.00;;;;4963763;28;20203;-68
2022/04/18 11:33:42;;;;;;;2.77;1.80;;;13.50;52.70;14.60;96651.00;;;;4964861;28;20222;-69
2022/04/18 11:36:11;;;;;;;2.10;1.20;;;13.60;52.20;14.60;96650.00;;;;4965940;28;20203;-68
2022/04/18 11:38:42;;;;;;;3.30;1.50;;;13.70;52.60;14.00;96666.00;;;;4945811;28;20246;-64
2022/04/18 11:41:11;;;;;;;3.07;1.37;;;13.80;51.90;14.80;96666.00;;;;4965964;28;20302;-68
2022/04/18 11:43:40;;;;;;;2.63;1.40;;;13.80;52.30;14.70;96674.00;;;;4964864;28;20238;-68
2022/04/18 11:46:10;;;;;;;1.37;1.27;;;13.70;52.00;14.10;96683.00;;;;4958951;28;20206;-66
2022/04/18 11:48:39;;;;;;;3.50;1.13;;;13.70;51.50;13.90;96668.00;;;;4960850;28;20282;-66
2022/04/18 11:51:08;;;;;;;1.80;1.20;;;13.60;52.00;14.30;96676.00;;;;4964450;28;20218;-69
2022/04/18 11:53:41;;;;;;;2.80;1.20;;;13.60;52.40;13.80;96667.00;;;;4963245;28;20244;-69
2022/04/18 11:56:11;;;;;;;1.17;1.07;;;13.50;51.40;14.60;96681.00;;;;4964234;28;20206;-69
2022/04/18 11:58:40;;;;;;;3.00;1.47;;;13.50;52.90;15.30;96667.00;;;;4959803;28;20204;-69
2022/04/18 12:06:49;;;;;;;1.17;1.07;;;13.50;51.60;13.80;96585.00;;;;4960881;28;20529;-67
2022/04/18 12:09:22;;;;;;;1.17;1.07;;;13.50;51.50;16.10;96619.00;;;;4965390;28;20213;-66
2022/04/18 12:11:51;;;;;;;3.27;1.57;;;14.00;52.90;16.20;96657.00;;;;4961881;28;20208;-67
2022/04/18 12:14:20;;;;;;;1.63;1.37;;;14.50;52.90;15.50;96655.00;;;;4962178;28;20238;-69
2022/04/18 12:17:03;;;;;;;1.43;1.03;;;14.70;50.50;13.00;96631.00;;;;4957985;28;20207;-68
2022/04/18 12:19:31;;;;;;;2.27;1.20;;;14.50;49.40;15.50;96646.00;;;;4962951;28;20218;-68
2022/04/18 12:22:00;;;;;;;3.27;1.67;;;14.40;50.90;15.90;96644.00;;;;4962551;28;20282;-68
2022/04/18 12:24:40;;;;;;;3.40;1.63;;;14.50;52.10;16.10;96633.00;;;;4960993;28;21538;-69
2022/04/18 12:27:09;;;;;;;1.37;1.10;;;14.70;51.80;17.00;96570.00;;;;4961540;28;20206;-69
2022/04/18 12:29:38;;;;;;;1.90;1.40;;;15.10;51.50;17.30;96634.00;;;;4960563;28;20211;-66
2022/04/18 12:32:14;;;;;;;3.27;1.23;;;;;16.90;96569.00;;;;4959669;28;20218;-68
2022/04/18 12:34:44;;;;;;;1.40;1.10;;;;;17.80;96616.00;;;;4956517;28;20210;-68
2022/04/18 12:37:13;;;;;;;2.67;1.83;;;;;18.30;96600.00;;;;4963897;28;20258;-65
2022/04/18 12:39:44;;;;;;;2.37;1.60;;;;;18.00;96624.00;;;;4964670;28;20214;-66
2022/04/18 12:42:14;;;;;;;2.60;1.67;;;;;17.00;96628.00;;;;4961858;28;20480;-67
2022/04/18 12:44:43;;;;;;;2.57;1.87;;;;;18.10;96637.00;;;;4963135;28;20278;-68
2022/04/18 12:47:18;;;;;;;1.87;1.20;;;;;18.20;96629.00;;;;4956405;28;20212;-68
2022/04/18 12:50:09;;;;;;;1.40;0.93;;;;;19.20;96567.00;;;;4960933;28;20309;-68
2022/04/18 12:52:49;;;;;;;1.60;1.00;;;;;18.50;96633.00;;;;4963803;28;20226;-69
2022/04/18 12:55:27;;;;;;;2.40;1.33;;;;;19.30;96553.00;;;;4960164;28;20225;-69